Time;durP1;ratioP1;P1;durP2;ratioP2;P2;SDS_P1;SDS_P2;PMS_P1;PMS_P2;Temp;Humidity;BMP_temperature;BMP_pressure;BME280_temperature;BME280_humidity;BME280_pressure;Samples;Min_cycle;Max_cycle;Signal;HPM_P1;HPM_P2
2021/05/19 00:01:08;;;;;;;37.90;22.52;;;;;;;-143.98;100.00;68091.63;6255668;23;20084;-83
2021/05/19 00:03:35;;;;;;;38.13;23.63;;;;;;;-143.98;100.00;68091.63;6232162;23;20024;-83
2021/05/19 00:06:09;;;;;;;33.75;22.08;;;;;;;-143.98;100.00;68091.63;6256960;23;20107;-83
2021/05/19 00:08:36;;;;;;;37.22;21.92;;;;;;;-143.98;100.00;68091.63;6257826;22;20034;-83
2021/05/19 00:11:03;;;;;;;38.17;24.50;;;;;;;-143.98;100.00;68091.63;6254380;23;20042;-83
2021/05/19 00:13:32;;;;;;;40.15;24.20;;;;;;;-143.98;100.00;68091.63;6255547;23;20115;-83
2021/05/19 00:15:59;;;;;;;38.70;23.63;;;;;;;-143.98;100.00;68091.63;6230542;23;20024;-82
2021/05/19 00:18:26;;;;;;;41.97;25.08;;;;;;;-143.98;100.00;68091.63;6230075;23;20055;-83
2021/05/19 00:21:01;;;;;;;41.25;24.80;;;;;;;-143.98;100.00;68091.63;6255933;23;20039;-82
2021/05/19 00:23:28;;;;;;;31.83;22.48;;;;;;;-143.98;100.00;68091.63;6255684;23;20024;-82
2021/05/19 00:25:55;;;;;;;35.05;22.35;;;;;;;-143.98;100.00;68091.63;6257800;22;20028;-81
2021/05/19 00:28:22;;;;;;;33.88;21.42;;;;;;;-143.98;100.00;68091.63;6255510;23;20024;-83
2021/05/19 00:30:54;;;;;;;32.08;20.63;;;;;;;-143.98;100.00;68091.63;6228427;23;20021;-83
2021/05/19 00:33:24;;;;;;;44.55;25.50;;;;;;;-143.98;100.00;68091.63;6231104;23;20090;-82
2021/05/19 00:35:54;;;;;;;37.83;24.33;;;;;;;-143.98;100.00;68091.63;6256153;23;20024;-84
2021/05/19 00:38:30;;;;;;;42.50;24.60;;;;;;;-143.98;100.00;68091.63;6256682;23;20051;-81
2021/05/19 00:40:57;;;;;;;37.95;22.55;;;;;;;-143.98;100.00;68091.63;6230077;23;20024;-84
2021/05/19 00:43:30;;;;;;;35.30;22.92;;;;;;;-143.98;100.00;68091.63;6230548;23;20039;-81
2021/05/19 00:45:57;;;;;;;32.05;21.13;;;;;;;-143.98;100.00;68091.63;6258060;23;20024;-82
2021/05/19 00:48:24;;;;;;;40.05;24.50;;;;;;;-143.98;100.00;68091.63;6232028;23;20351;-83
2021/05/19 00:50:51;;;;;;;35.78;22.08;;;;;;;-143.98;100.00;68091.63;6258602;22;20070;-83
2021/05/19 00:53:27;;;;;;;38.53;22.10;;;;;;;-143.98;100.00;68091.63;6256948;23;20031;-83
2021/05/19 00:55:54;;;;;;;36.90;23.52;;;;;;;-143.98;100.00;68091.63;6231578;23;20035;-81
2021/05/19 00:58:21;;;;;;;39.65;23.25;;;;;;;-143.98;100.00;68091.63;6230061;23;20019;-81
2021/05/19 01:01:03;;;;;;;43.13;25.48;;;;;;;-143.98;100.00;68091.63;6228762;23;20046;-82
2021/05/19 01:03:30;;;;;;;41.03;25.15;;;;;;;-143.98;100.00;68091.63;6229347;23;20424;-82
2021/05/19 01:06:03;;;;;;;44.50;27.45;;;;;;;-143.98;100.00;68091.63;6255609;23;20028;-82
2021/05/19 01:11:18;;;;;;;40.88;24.40;;;;;;;-143.98;100.00;68091.63;6258207;23;20038;-82
2021/05/19 01:13:47;;;;;;;43.53;25.33;;;;;;;-143.98;100.00;68091.63;6255181;23;20058;-82
2021/05/19 01:16:15;;;;;;;46.95;28.25;;;;;;;-143.98;100.00;68091.63;6255958;23;20058;-82
2021/05/19 01:18:42;;;;;;;47.00;28.05;;;;;;;-143.98;100.00;68091.63;6232254;23;20047;-82
2021/05/19 01:21:10;;;;;;;47.88;27.35;;;;;;;-143.98;100.00;68091.63;6258812;23;20017;-83
2021/05/19 01:23:39;;;;;;;48.80;28.13;;;;;;;-143.98;100.00;68091.63;6268481;22;20030;-82
2021/05/19 01:26:09;;;;;;;49.22;27.88;;;;;;;-143.98;100.00;68091.63;6244487;22;20043;-82
2021/05/19 01:28:37;;;;;;;48.42;27.58;;;;;;;-143.98;100.00;68091.63;6231757;23;20287;-81
2021/05/19 01:31:18;;;;;;;47.35;28.38;;;;;;;-143.98;100.00;68091.63;6255158;23;20055;-82
2021/05/19 01:33:48;;;;;;;47.38;28.00;;;;;;;-143.98;100.00;68091.63;6256430;23;20043;-84
2021/05/19 01:36:18;;;;;;;50.10;29.83;;;;;;;-143.98;100.00;68091.63;6230277;23;20138;-82
2021/05/19 01:38:45;;;;;;;53.13;30.25;;;;;;;-143.98;100.00;68091.63;6255821;23;20274;-82
2021/05/19 01:41:12;;;;;;;59.95;31.13;;;;;;;-143.98;100.00;68091.63;6255206;23;20358;-83
2021/05/19 01:43:39;;;;;;;52.70;31.70;;;;;;;-143.98;100.00;68091.63;6256178;22;20283;-81
2021/05/19 01:46:10;;;;;;;57.85;32.38;;;;;;;-143.98;100.00;68091.63;6256783;23;20024;-82
2021/05/19 01:48:37;;;;;;;59.53;33.22;;;;;;;-143.98;100.00;68091.63;6255706;23;20034;-83
2021/05/19 01:51:05;;;;;;;62.13;33.53;;;;;;;-143.98;100.00;68091.63;6231084;23;20028;-82
2021/05/19 01:53:38;;;;;;;55.65;32.10;;;;;;;-143.98;100.00;68091.63;6255254;23;20398;-83
2021/05/19 01:56:06;;;;;;;54.55;30.60;;;;;;;-143.98;100.00;68091.63;6231416;23;20031;-82
2021/05/19 01:58:33;;;;;;;57.05;31.35;;;;;;;-143.98;100.00;68091.63;6229845;23;20063;-83
2021/05/19 02:01:00;;;;;;;54.67;31.25;;;;;;;-143.98;100.00;68091.63;6252788;23;20092;-81
2021/05/19 02:03:32;;;;;;;52.70;31.73;;;;;;;-143.98;100.00;68091.63;6251163;22;20024;-82
2021/05/19 02:06:02;;;;;;;47.80;29.63;;;;;;;-143.98;100.00;68091.63;6252395;23;20390;-81
2021/05/19 02:08:30;;;;;;;49.80;29.63;;;;;;;-143.98;100.00;68091.63;6254966;22;20052;-82
2021/05/19 02:10:59;;;;;;;52.00;29.17;;;;;;;-143.98;100.00;68091.63;6255944;23;20055;-82
2021/05/19 02:13:29;;;;;;;53.03;28.90;;;;;;;-143.98;100.00;68091.63;6254615;23;20028;-82
2021/05/19 02:15:57;;;;;;;50.08;28.88;;;;;;;-143.98;100.00;68091.63;6254724;23;20032;-82
2021/05/19 02:18:27;;;;;;;48.28;28.80;;;;;;;-143.98;100.00;68091.63;6254411;23;20562;-82
2021/05/19 02:21:03;;;;;;;44.33;28.55;;;;;;;-143.98;100.00;68091.63;6254690;23;20390;-82
2021/05/19 02:23:32;;;;;;;51.03;30.30;;;;;;;-143.98;100.00;68091.63;6255383;23;20028;-82
2021/05/19 02:26:02;;;;;;;50.53;30.70;;;;;;;-143.98;100.00;68091.63;6254701;23;20020;-83
2021/05/19 02:28:30;;;;;;;51.90;30.05;;;;;;;-143.98;100.00;68091.63;6230685;23;20394;-81
2021/05/19 02:30:58;;;;;;;52.67;29.02;;;;;;;-143.98;100.00;68091.63;6260077;23;20088;-82
2021/05/19 02:33:31;;;;;;;52.40;30.35;;;;;;;-143.98;100.00;68091.63;6260622;23;20055;-82
2021/05/19 02:35:58;;;;;;;53.95;30.75;;;;;;;-143.98;100.00;68091.63;6257949;23;20024;-83
2021/05/19 02:38:31;;;;;;;49.90;29.42;;;;;;;-143.98;100.00;68091.63;6257446;23;20024;-83
2021/05/19 02:41:01;;;;;;;49.60;29.48;;;;;;;-143.98;100.00;68091.63;6230399;23;20373;-82
2021/05/19 02:43:28;;;;;;;47.47;28.95;;;;;;;-143.98;100.00;68091.63;6231735;23;20039;-81
2021/05/19 02:46:02;;;;;;;47.83;28.05;;;;;;;-143.98;100.00;68091.63;6257234;23;20103;-81
2021/05/19 02:48:34;;;;;;;46.65;29.13;;;;;;;-143.98;100.00;68091.63;6256660;23;20023;-83
2021/05/19 02:51:01;;;;;;;49.58;30.20;;;;;;;-143.98;100.00;68091.63;6262304;23;20069;-83
2021/05/19 02:53:30;;;;;;;49.63;30.00;;;;;;;-143.98;100.00;68091.63;6269753;22;20034;-82
2021/05/19 02:55:57;;;;;;;53.33;30.58;;;;;;;-143.98;100.00;68091.63;6266527;23;20031;-82
2021/05/19 02:58:33;;;;;;;50.83;29.38;;;;;;;-143.98;100.00;68091.63;6259013;23;20016;-83
2021/05/19 03:01:01;;;;;;;49.70;30.42;;;;;;;-143.98;100.00;68091.63;6232973;23;20024;-83
2021/05/19 03:03:31;;;;;;;53.58;31.63;;;;;;;-143.98;100.00;68091.63;6241405;23;20047;-83
2021/05/19 03:05:58;;;;;;;56.70;31.10;;;;;;;-143.98;100.00;68091.63;6265470;23;20103;-82
2021/05/19 03:08:27;;;;;;;53.88;30.02;;;;;;;-143.98;100.00;68091.63;6231922;23;20070;-82
2021/05/19 03:10:58;;;;;;;56.35;31.38;;;;;;;-143.98;100.00;68091.63;6231920;23;20082;-82
2021/05/19 03:13:30;;;;;;;58.58;31.48;;;;;;;-143.98;100.00;68091.63;6256685;23;20088;-82
2021/05/19 03:16:01;;;;;;;60.30;33.30;;;;;;;-143.98;100.00;68091.63;6233067;23;20040;-81
2021/05/19 03:18:32;;;;;;;55.42;30.35;;;;;;;-143.98;100.00;68091.63;6230855;23;20051;-81
2021/05/19 03:21:01;;;;;;;56.83;30.52;;;;;;;-143.98;100.00;68091.63;6255760;23;20039;-81
2021/05/19 03:23:31;;;;;;;49.22;28.80;;;;;;;-143.98;100.00;68091.63;6231214;23;20031;-82
2021/05/19 03:26:00;;;;;;;60.42;32.00;;;;;;;-143.98;100.00;68091.63;6255225;23;20025;-81
2021/05/19 03:28:30;;;;;;;55.50;30.38;;;;;;;-143.98;100.00;68091.63;6255325;23;20036;-81
2021/05/19 03:31:00;;;;;;;54.75;30.75;;;;;;;-143.98;100.00;68091.63;6255144;23;20059;-82
2021/05/19 03:33:29;;;;;;;54.60;28.95;;;;;;;-143.98;100.00;68091.63;6253960;23;20199;-82
2021/05/19 03:36:05;;;;;;;55.13;30.50;;;;;;;-143.98;100.00;68091.63;6254376;23;20310;-82
2021/05/19 03:38:34;;;;;;;55.83;28.95;;;;;;;-143.98;100.00;68091.63;6252289;23;20020;-82
2021/05/19 03:41:02;;;;;;;55.35;27.80;;;;;;;-143.98;100.00;68091.63;6253225;23;20035;-81
2021/05/19 03:43:29;;;;;;;59.03;29.50;;;;;;;-143.98;100.00;68091.63;6226460;23;20051;-82
2021/05/19 03:46:06;;;;;;;59.30;30.60;;;;;;;-143.98;100.00;68091.63;6253217;23;20093;-81
2021/05/19 03:48:34;;;;;;;58.85;29.83;;;;;;;-143.98;100.00;68091.63;6254590;23;20031;-82
2021/05/19 03:51:04;;;;;;;62.72;32.92;;;;;;;-143.98;100.00;68091.63;6266632;23;20016;-82
2021/05/19 03:53:35;;;;;;;57.20;31.52;;;;;;;-143.98;100.00;68091.63;6266696;22;20024;-81
2021/05/19 03:56:02;;;;;;;57.45;31.75;;;;;;;-143.98;100.00;68091.63;6265783;22;20032;-82
2021/05/19 03:58:36;;;;;;;59.33;31.73;;;;;;;-143.98;100.00;68091.63;6259921;23;20051;-83
2021/05/19 04:01:04;;;;;;;51.50;30.02;;;;;;;-143.98;100.00;68091.63;6250623;23;20055;-80
2021/05/19 04:03:32;;;;;;;50.30;29.35;;;;;;;-143.98;100.00;68091.63;6252767;23;20028;-80
2021/05/19 04:06:06;;;;;;;50.25;29.40;;;;;;;-143.98;100.00;68091.63;6229136;23;20028;-81
2021/05/19 04:08:35;;;;;;;49.47;30.02;;;;;;;-143.98;100.00;68091.63;6251663;23;20218;-81
2021/05/19 04:11:08;;;;;;;51.33;29.00;;;;;;;-143.98;100.00;68091.63;6252972;23;20023;-83
2021/05/19 04:13:55;;;;;;;55.10;30.38;;;;;;;-143.98;100.00;68091.63;6253661;23;20047;-82
2021/05/19 04:16:22;;;;;;;48.97;28.53;;;;;;;-143.98;100.00;68091.63;6252903;23;20035;-82
2021/05/19 04:18:51;;;;;;;46.85;28.75;;;;;;;-143.98;100.00;68091.63;6252019;23;20423;-82
2021/05/19 04:21:22;;;;;;;47.05;28.55;;;;;;;-143.98;100.00;68091.63;6253596;22;20050;-81
2021/05/19 04:24:03;;;;;;;44.28;27.35;;;;;;;-143.98;100.00;68091.63;6252431;23;20080;-82
2021/05/19 04:26:33;;;;;;;47.03;27.63;;;;;;;-143.98;100.00;68091.63;6255016;23;20044;-82
2021/05/19 04:29:01;;;;;;;40.80;27.23;;;;;;;-143.98;100.00;68091.63;6253471;23;20027;-80
2021/05/19 04:31:30;;;;;;;49.85;30.40;;;;;;;-143.98;100.00;68091.63;6226380;23;20020;-80
2021/05/19 04:33:58;;;;;;;51.83;30.60;;;;;;;-143.98;100.00;68091.63;6255514;23;20511;-82
2021/05/19 04:36:32;;;;;;;52.47;31.23;;;;;;;-143.98;100.00;68091.63;6265833;22;20085;-82
2021/05/19 04:39:04;;;;;;;46.58;28.80;;;;;;;-143.98;100.00;68091.63;6241510;22;20054;-81
2021/05/19 04:41:32;;;;;;;35.58;25.88;;;;;;;-143.98;100.00;68091.63;6229406;23;20031;-81
2021/05/19 04:44:16;;;;;;;35.70;24.33;;;;;;;-143.98;100.00;68091.63;6230392;23;20028;-83
2021/05/19 04:46:42;;;;;;;32.38;21.55;;;;;;;-143.98;100.00;68091.63;6253341;23;20031;-82
2021/05/19 04:49:09;;;;;;;28.75;19.48;;;;;;;-143.98;100.00;68091.63;6227400;23;20055;-82
2021/05/19 04:51:36;;;;;;;24.50;17.80;;;;;;;-143.98;100.00;68091.63;6254092;23;20024;-82
2021/05/19 04:54:07;;;;;;;22.02;17.27;;;;;;;-143.98;100.00;68091.63;6231896;23;20028;-82
2021/05/19 04:56:34;;;;;;;24.33;17.67;;;;;;;-143.98;100.00;68091.63;6254696;23;20080;-82
2021/05/19 04:59:05;;;;;;;21.17;16.73;;;;;;;-143.98;100.00;68091.63;6226679;23;20024;-81
2021/05/19 05:01:34;;;;;;;21.45;15.63;;;;;;;-143.98;100.00;68091.63;6249199;23;20024;-82
2021/05/19 05:04:02;;;;;;;21.38;15.07;;;;;;;-143.98;100.00;68091.63;6227437;23;20227;-82
2021/05/19 05:06:33;;;;;;;19.48;14.93;;;;;;;-143.98;100.00;68091.63;6226609;23;20038;-82
2021/05/19 05:09:00;;;;;;;22.20;15.52;;;;;;;-143.98;100.00;68091.63;6252725;23;20047;-84
2021/05/19 05:11:27;;;;;;;19.40;14.18;;;;;;;-143.98;100.00;68091.63;6234800;23;20119;-83
2021/05/19 05:13:58;;;;;;;19.35;14.73;;;;;;;-143.98;100.00;68091.63;6262790;23;20016;-82
2021/05/19 05:16:26;;;;;;;22.20;14.63;;;;;;;-143.98;100.00;68091.63;6248632;22;20047;-82
2021/05/19 05:19:28;;;;;;;18.88;13.98;;;;;;;-143.98;100.00;68091.63;6257123;23;20024;-85
2021/05/19 05:21:56;;;;;;;17.10;13.70;;;;;;;-143.98;100.00;68091.63;6256187;23;20028;-83
2021/05/19 05:24:28;;;;;;;18.48;14.07;;;;;;;-143.98;100.00;68091.63;6231045;23;20149;-82
2021/05/19 05:26:56;;;;;;;19.33;14.45;;;;;;;-143.98;100.00;68091.63;6251872;23;20024;-83
2021/05/19 05:29:24;;;;;;;19.80;13.90;;;;;;;-143.98;100.00;68091.63;6253211;23;20035;-83
2021/05/19 05:31:52;;;;;;;17.05;13.30;;;;;;;-143.98;100.00;68091.63;6249824;23;20039;-84
2021/05/19 05:34:21;;;;;;;20.38;12.93;;;;;;;-143.98;100.00;68091.63;6250825;23;20053;-83
2021/05/19 05:36:49;;;;;;;19.35;14.07;;;;;;;-143.98;100.00;68091.63;6260403;23;20097;-82
2021/05/19 05:39:16;;;;;;;17.08;13.32;;;;;;;-143.98;100.00;68091.63;6237201;23;20028;-83
2021/05/19 05:41:43;;;;;;;17.23;12.80;;;;;;;-143.98;100.00;68091.63;6260450;23;20039;-83
2021/05/19 05:44:15;;;;;;;16.60;12.45;;;;;;;-143.98;100.00;68091.63;6256534;23;20039;-83
2021/05/19 05:46:43;;;;;;;14.88;11.93;;;;;;;-143.98;100.00;68091.63;6249987;23;20115;-83
2021/05/19 05:49:10;;;;;;;16.48;11.88;;;;;;;-143.98;100.00;68091.63;6225777;23;20035;-82
2021/05/19 05:51:38;;;;;;;16.20;12.45;;;;;;;-143.98;100.00;68091.63;6225813;23;20063;-82
2021/05/19 05:54:05;;;;;;;13.85;10.57;;;;;;;-143.98;100.00;68091.63;6226210;23;20094;-83
2021/05/19 05:56:33;;;;;;;15.55;10.88;;;;;;;-143.98;100.00;68091.63;6224479;23;20035;-86
2021/05/19 05:59:00;;;;;;;16.58;11.65;;;;;;;-143.98;100.00;68091.63;6248736;23;20060;-84
2021/05/19 06:01:27;;;;;;;14.82;12.05;;;;;;;-143.98;100.00;68091.63;6223035;23;20365;-83
2021/05/19 06:03:54;;;;;;;14.45;11.40;;;;;;;-143.98;100.00;68091.63;6254407;23;20084;-83
2021/05/19 06:06:21;;;;;;;15.43;11.10;;;;;;;-143.98;100.00;68091.63;6262334;22;20039;-84
2021/05/19 06:08:48;;;;;;;14.75;11.32;;;;;;;-143.98;100.00;68091.63;6257232;22;20413;-84
2021/05/19 06:11:16;;;;;;;13.45;11.23;;;;;;;-143.98;100.00;68091.63;6225312;23;20180;-84
2021/05/19 06:13:43;;;;;;;12.98;10.18;;;;;;;-143.98;100.00;68091.63;6225768;23;20055;-82
2021/05/19 06:16:15;;;;;;;13.60;10.65;;;;;;;-143.98;100.00;68091.63;6259499;23;20012;-82
2021/05/19 06:18:42;;;;;;;13.70;10.35;;;;;;;-143.98;100.00;68091.63;6259257;23;20028;-85
2021/05/19 06:21:13;;;;;;;14.18;10.55;;;;;;;-143.98;100.00;68091.63;6254023;23;20027;-84
2021/05/19 06:23:41;;;;;;;12.82;11.07;;;;;;;-143.98;100.00;68091.63;6252580;23;20018;-84
2021/05/19 06:26:15;;;;;;;12.40;10.32;;;;;;;-143.98;100.00;68091.63;6253889;23;20318;-84
2021/05/19 06:28:43;;;;;;;15.18;11.10;;;;;;;-143.98;100.00;68091.63;6253679;23;20024;-83
2021/05/19 06:31:13;;;;;;;13.55;10.43;;;;;;;-143.98;100.00;68091.63;6229606;23;20028;-84
2021/05/19 06:33:45;;;;;;;15.25;10.75;;;;;;;-143.98;100.00;68091.63;6254655;23;20085;-84
2021/05/19 06:36:20;;;;;;;10.95;8.48;;;;;;;-143.98;100.00;68091.63;6255880;23;20031;-84
2021/05/19 06:38:47;;;;;;;13.95;9.77;;;;;;;-143.98;100.00;68091.63;6229092;23;20036;-84
2021/05/19 06:41:14;;;;;;;12.65;10.18;;;;;;;-143.98;100.00;68091.63;6254816;23;20024;-83
2021/05/19 06:43:45;;;;;;;13.77;9.68;;;;;;;-143.98;100.00;68091.63;6228927;23;20480;-82
2021/05/19 06:46:18;;;;;;;8.52;6.70;;;;;;;-143.98;100.00;68091.63;6253355;23;20063;-84
2021/05/19 06:48:49;;;;;;;10.30;7.28;;;;;;;-143.98;100.00;68091.63;6231926;23;20084;-83
2021/05/19 06:51:18;;;;;;;11.25;7.50;;;;;;;-143.98;100.00;68091.63;6259634;23;20186;-84
2021/05/19 06:53:48;;;;;;;8.40;6.82;;;;;;;-143.98;100.00;68091.63;6256394;23;20028;-83
2021/05/19 06:56:19;;;;;;;9.65;7.65;;;;;;;-143.98;100.00;68091.63;6255642;23;20082;-84
2021/05/19 06:58:47;;;;;;;10.38;7.75;;;;;;;-143.98;100.00;68091.63;6255830;23;20050;-84
2021/05/19 07:01:17;;;;;;;10.70;7.55;;;;;;;-143.98;100.00;68091.63;6231615;23;20040;-84
2021/05/19 07:03:49;;;;;;;11.82;8.38;;;;;;;-143.98;100.00;68091.63;6230586;23;20028;-83
2021/05/19 07:06:20;;;;;;;12.63;8.65;;;;;;;-143.98;100.00;68091.63;6253993;23;20058;-84
2021/05/19 07:08:48;;;;;;;9.55;7.80;;;;;;;-143.98;100.00;68091.63;6228863;23;20024;-83
2021/05/19 07:11:23;;;;;;;14.43;8.23;;;;;;;-143.98;100.00;68091.63;6254458;23;20028;-85
2021/05/19 07:13:55;;;;;;;10.55;8.02;;;;;;;-143.98;100.00;68091.63;6253980;23;20535;-83
2021/05/19 07:16:24;;;;;;;11.45;6.35;;;;;;;-143.98;100.00;68091.63;6228765;23;20035;-83
2021/05/19 07:18:54;;;;;;;9.73;6.45;;;;;;;-143.98;100.00;68091.63;6229268;23;20363;-84
2021/05/19 07:21:26;;;;;;;9.77;5.70;;;;;;;-143.98;100.00;68091.63;6228589;23;20024;-84
2021/05/19 07:23:53;;;;;;;9.18;5.78;;;;;;;-143.98;100.00;68091.63;6227583;23;20035;-83
2021/05/19 07:26:23;;;;;;;8.32;6.05;;;;;;;-143.98;100.00;68091.63;6230080;23;20032;-83
2021/05/19 07:28:52;;;;;;;8.70;5.72;;;;;;;-143.98;100.00;68091.63;6253536;23;20099;-84
2021/05/19 07:31:22;;;;;;;9.85;6.22;;;;;;;-143.98;100.00;68091.63;6229660;23;20024;-84
2021/05/19 07:33:49;;;;;;;12.13;6.28;;;;;;;-143.98;100.00;68091.63;6254635;22;20028;-84
2021/05/19 07:36:16;;;;;;;10.07;6.00;;;;;;;-143.98;100.00;68091.63;6226762;23;20059;-84
2021/05/19 07:38:43;;;;;;;9.48;7.25;;;;;;;-143.98;100.00;68091.63;6252946;23;20032;-83
2021/05/19 07:41:12;;;;;;;13.02;7.65;;;;;;;-143.98;100.00;68091.63;6251771;23;20031;-83
2021/05/19 07:43:50;;;;;;;11.55;6.18;;;;;;;-143.98;100.00;68091.63;6250371;23;20469;-83
2021/05/19 07:46:19;;;;;;;7.60;5.63;;;;;;;-143.98;100.00;68091.63;6235034;22;20247;-83
2021/05/19 07:48:45;;;;;;;12.68;7.30;;;;;;;-143.98;100.00;68091.63;6241050;22;20000;-84
2021/05/19 07:51:15;;;;;;;11.18;7.50;;;;;;;-143.98;100.00;68091.63;6235758;22;20086;-83
2021/05/19 07:53:42;;;;;;;14.52;8.40;;;;;;;-143.98;100.00;68091.63;6227863;23;20012;-84
2021/05/19 07:56:15;;;;;;;13.13;8.93;;;;;;;-143.98;100.00;68091.63;6226076;23;20012;-83
2021/05/19 07:59:01;;;;;;;11.75;8.48;;;;;;;-143.98;100.00;68091.63;6250840;23;20008;-83
2021/05/19 08:04:08;;;;;;;8.55;4.53;;;;;;;-143.98;100.00;68091.63;6251806;23;20103;-83
2021/05/19 08:06:43;;;;;;;7.47;3.42;;;;;;;-143.98;100.00;68091.63;6254249;23;20008;-84
2021/05/19 08:09:11;;;;;;;5.35;2.97;;;;;;;-143.98;100.00;68091.63;6229290;23;20008;-84
2021/05/19 08:11:40;;;;;;;4.60;3.10;;;;;;;-143.98;100.00;68091.63;6251950;23;20008;-83
2021/05/19 08:14:14;;;;;;;5.25;3.30;;;;;;;-143.98;100.00;68091.63;6251607;23;20227;-84
2021/05/19 08:16:44;;;;;;;8.57;4.20;;;;;;;-143.98;100.00;68091.63;6252697;23;20032;-83
2021/05/19 08:19:10;;;;;;;8.18;4.55;;;;;;;-143.98;100.00;68091.63;6252964;23;20368;-84
2021/05/19 08:21:38;;;;;;;9.45;5.45;;;;;;;-143.98;100.00;68091.63;6227652;23;20036;-83
2021/05/19 08:24:21;;;;;;;9.23;4.93;;;;;;;-143.98;100.00;68091.63;6252328;23;20028;-83
2021/05/19 08:26:50;;;;;;;14.57;6.55;;;;;;;-143.98;100.00;68091.63;6227180;23;20050;-83
2021/05/19 08:29:16;;;;;;;10.80;5.78;;;;;;;-143.98;100.00;68091.63;6254000;23;20028;-83
2021/05/19 08:32:04;;;;;;;11.05;6.20;;;;;;;-143.98;100.00;68091.63;6252733;23;20035;-84
2021/05/19 08:34:58;;;;;;;11.40;5.45;;;;;;;-143.98;100.00;68091.63;6226642;23;20031;-84
2021/05/19 08:37:26;;;;;;;12.02;6.25;;;;;;;-143.98;100.00;68091.63;6227669;23;20071;-83
2021/05/19 08:39:53;;;;;;;8.70;5.88;;;;;;;-143.98;100.00;68091.63;6253323;23;20076;-83
2021/05/19 08:42:21;;;;;;;9.73;5.80;;;;;;;-143.98;100.00;68091.63;6254156;23;20039;-83
2021/05/19 08:44:55;;;;;;;7.53;4.85;;;;;;;-143.98;100.00;68091.63;6259478;23;20047;-84
2021/05/19 08:47:25;;;;;;;7.43;4.50;;;;;;;-143.98;100.00;68091.63;6265150;22;20027;-84
2021/05/19 08:49:52;;;;;;;10.48;5.43;;;;;;;-143.98;100.00;68091.63;6240434;22;20039;-82
2021/05/19 08:52:24;;;;;;;12.80;4.95;;;;;;;-143.98;100.00;68091.63;6262881;22;20024;-86
2021/05/19 08:55:01;;;;;;;9.40;4.72;;;;;;;-143.98;100.00;68091.63;6253653;23;20035;-83
2021/05/19 08:57:33;;;;;;;10.02;5.03;;;;;;;-143.98;100.00;68091.63;6256075;23;20050;-84
2021/05/19 09:00:09;;;;;;;8.60;4.93;;;;;;;-143.98;100.00;68091.63;6227378;23;20199;-84
2021/05/19 09:02:39;;;;;;;10.15;4.10;;;;;;;-143.98;100.00;68091.63;6228982;23;20035;-84
2021/05/19 09:05:07;;;;;;;4.80;3.80;;;;;;;-143.98;100.00;68091.63;6226840;23;20091;-83
2021/05/19 09:07:39;;;;;;;7.40;4.47;;;;;;;-143.98;100.00;68091.63;6248023;23;20039;-83
2021/05/19 09:10:20;;;;;;;6.43;2.70;;;;;;;-143.98;100.00;68091.63;6224043;23;20039;-83
2021/05/19 09:12:46;;;;;;;6.32;3.33;;;;;;;-143.98;100.00;68091.63;6252819;23;20024;-84
2021/05/19 09:15:14;;;;;;;5.97;2.90;;;;;;;-143.98;100.00;68091.63;6265613;22;20023;-83
2021/05/19 09:17:43;;;;;;;5.88;2.63;;;;;;;-143.98;100.00;68091.63;6262735;22;20012;-85
2021/05/19 09:20:18;;;;;;;6.45;2.67;;;;;;;-143.98;100.00;68091.63;6254317;23;20036;-83
2021/05/19 09:22:47;;;;;;;3.38;2.17;;;;;;;-143.98;100.00;68091.63;6255166;23;20168;-84
2021/05/19 09:25:22;;;;;;;4.72;2.20;;;;;;;-143.98;100.00;68091.63;6232796;22;20028;-86
2021/05/19 09:27:51;;;;;;;9.43;2.58;;;;;;;-143.98;100.00;68091.63;6262470;22;20015;-83
2021/05/19 09:30:41;;;;;;;6.75;2.42;;;;;;;-143.98;100.00;68091.63;6249894;23;20433;-84
2021/05/19 09:33:22;;;;;;;16.52;2.75;;;;;;;-143.98;100.00;68091.63;6222313;23;20095;-84
2021/05/19 09:36:19;;;;;;;5.38;2.60;;;;;;;-143.98;100.00;68091.63;6231164;23;20035;-84
2021/05/19 09:38:54;;;;;;;4.97;2.72;;;;;;;-143.98;100.00;68091.63;6256839;22;20028;-84
2021/05/19 09:41:28;;;;;;;4.97;2.60;;;;;;;-143.98;100.00;68091.63;6235032;22;20024;-84
2021/05/19 09:44:26;;;;;;;4.47;2.58;;;;;;;-143.98;100.00;68091.63;6236528;23;20042;-83
2021/05/19 09:46:52;;;;;;;5.90;2.92;;;;;;;-143.98;100.00;68091.63;6237291;23;20081;-84
2021/05/19 09:49:20;;;;;;;5.45;2.80;;;;;;;-143.98;100.00;68091.63;6238605;22;20028;-85
2021/05/19 09:52:13;;;;;;;8.10;2.90;;;;;;;-143.98;100.00;68091.63;6259899;23;20032;-84
2021/05/19 09:54:44;;;;;;;6.25;3.22;;;;;;;-143.98;100.00;68091.63;6253487;22;20035;-83
2021/05/19 09:57:16;;;;;;;;;;;;;;;-143.98;100.00;68091.63;6224827;23;20024;-84
2021/05/19 09:59:50;;;;;;;6.68;3.70;;;;;;;-143.98;100.00;68091.63;6219683;23;20014;-84
2021/05/19 10:02:23;;;;;;;6.45;3.65;;;;;;;-143.98;100.00;68091.63;6223979;23;20072;-83
2021/05/19 10:05:05;;;;;;;7.80;3.55;;;;;;;-143.98;100.00;68091.63;6221060;23;20302;-82
2021/05/19 10:07:42;;;;;;;5.15;3.55;;;;;;;-143.98;100.00;68091.63;6225854;23;20121;-83
2021/05/19 10:10:23;;;;;;;6.55;3.70;;;;;;;-143.98;100.00;68091.63;6223720;23;20028;-83
2021/05/19 10:12:58;;;;;;;7.68;4.22;;;;;;;-143.98;100.00;68091.63;6227899;23;20087;-84
2021/05/19 10:15:33;;;;;;;7.93;3.50;;;;;;;-143.98;100.00;68091.63;6245439;22;20244;-84
2021/05/19 10:18:10;;;;;;;5.72;3.65;;;;;;;-143.98;100.00;68091.63;6220648;23;20283;-83
2021/05/19 10:20:40;;;;;;;6.55;3.85;;;;;;;-143.98;100.00;68091.63;6224618;23;20031;-83
2021/05/19 10:23:15;;;;;;;4.78;3.50;;;;;;;-143.98;100.00;68091.63;6221547;23;20444;-83
2021/05/19 10:25:42;;;;;;;8.82;4.00;;;;;;;-143.98;100.00;68091.63;6248828;23;20070;-83
2021/05/19 10:28:14;;;;;;;8.07;3.83;;;;;;;-143.98;100.00;68091.63;6247821;23;20086;-83
2021/05/19 10:30:58;;;;;;;17.52;3.83;;;;;;;-143.98;100.00;68091.63;6248691;22;20148;-82
2021/05/19 10:33:30;;;;;;;6.63;3.45;;;;;;;-143.98;100.00;68091.63;6248229;23;20047;-84
2021/05/19 10:35:59;;;;;;;7.03;3.10;;;;;;;-143.98;100.00;68091.63;6250561;22;20032;-83
2021/05/19 10:38:32;;;;;;;8.05;3.63;;;;;;;-143.98;100.00;68091.63;6250299;23;20064;-83
2021/05/19 10:41:01;;;;;;;6.60;3.47;;;;;;;-143.98;100.00;68091.63;6251805;23;20058;-83
2021/05/19 10:43:58;;;;;;;6.03;3.10;;;;;;;-143.98;100.00;68091.63;6248787;23;20036;-85
2021/05/19 10:46:50;;;;;;;5.57;3.08;;;;;;;-143.98;100.00;68091.63;6246681;23;20204;-84
2021/05/19 10:49:19;;;;;;;6.40;2.90;;;;;;;-143.98;100.00;68091.63;6249853;22;20024;-84
2021/05/19 10:52:17;;;;;;;7.63;3.33;;;;;;;-143.98;100.00;68091.63;6221387;23;20035;-84
2021/05/19 10:57:55;;;;;;;11.65;4.45;;;;;;;-143.98;100.00;68091.63;6256107;22;20269;-84
2021/05/19 11:00:31;;;;;;;6.72;3.45;;;;;;;-143.98;100.00;68091.63;6239722;22;20012;-84
2021/05/19 11:03:02;;;;;;;5.78;4.10;;;;;;;-143.98;100.00;68091.63;6234582;23;20133;-84
2021/05/19 11:05:32;;;;;;;5.40;3.50;;;;;;;-143.98;100.00;68091.63;6260954;22;20024;-84
2021/05/19 11:08:13;;;;;;;7.88;5.03;;;;;;;-143.98;100.00;68091.63;6235810;23;20050;-84
2021/05/19 11:10:55;;;;;;;7.45;5.63;;;;;;;-143.98;100.00;68091.63;6260673;22;20028;-84
2021/05/19 11:13:24;;;;;;;9.05;5.72;;;;;;;-143.98;100.00;68091.63;6251052;23;20101;-83
2021/05/19 11:21:23;;;;;;;10.23;6.38;;;;;;;-143.98;100.00;68091.63;6249393;23;20031;-83
2021/05/19 11:24:06;;;;;;;10.23;6.70;;;;;;;-143.98;100.00;68091.63;6249931;23;20039;-83
2021/05/19 11:26:39;;;;;;;10.13;6.30;;;;;;;-143.98;100.00;68091.63;6247295;23;20024;-83
2021/05/19 11:29:11;;;;;;;10.02;6.45;;;;;;;-143.98;100.00;68091.63;6251656;23;20070;-83
2021/05/19 11:31:47;;;;;;;6.38;3.33;;;;;;;-143.98;100.00;68091.63;6229860;23;20047;-84